createdAt,value
2023-09-28T00:00:33.355Z,97334.22
2023-09-28T00:02:59.966Z,97332.44
2023-09-28T00:05:26.508Z,97330.44
2023-09-28T00:07:53.113Z,97326.91
2023-09-28T00:10:19.655Z,97324.13
2023-09-28T00:12:50.275Z,97324.50
2023-09-28T00:15:17.269Z,97321.38
2023-09-28T00:17:43.846Z,97323.94
2023-09-28T00:20:17.743Z,97331.31
2023-09-28T00:22:50.470Z,97328.44
2023-09-28T00:25:17.720Z,97327.06
2023-09-28T00:27:45.613Z,97323.78
2023-09-28T00:30:21.508Z,97322.19
2023-09-28T00:32:48.559Z,97319.28
2023-09-28T00:37:59.994Z,97315.38
2023-09-28T00:40:29.654Z,97321.25
2023-09-28T00:42:56.776Z,97319.63
2023-09-28T00:45:24.021Z,97317.22
2023-09-28T00:47:56.233Z,97320.13
2023-09-28T00:50:24.381Z,97325.78
2023-09-28T00:52:54.313Z,97321.25
2023-09-28T00:55:21.381Z,97320.84
2023-09-28T00:57:48.771Z,97323.25
2023-09-28T01:00:29.981Z,97315.75
2023-09-28T01:02:58.712Z,97318.44
2023-09-28T01:08:28.089Z,97319.28
2023-09-28T01:10:54.798Z,97316.19
2023-09-28T01:13:25.404Z,97313.63
2023-09-28T01:15:51.992Z,97312.09
2023-09-28T01:18:19.716Z,97309.16
2023-09-28T01:20:46.970Z,97314.03
2023-09-28T01:23:13.736Z,97321.19
2023-09-28T01:25:40.860Z,97320.03
2023-09-28T01:28:07.905Z,97318.97
2023-09-28T01:30:35.002Z,97316.81
2023-09-28T01:33:01.991Z,97323.03
2023-09-28T01:35:29.038Z,97324.72
2023-09-28T01:38:16.014Z,97315.94
2023-09-28T01:40:43.128Z,97310.56
2023-09-28T01:43:09.728Z,97317.19
2023-09-28T01:45:36.242Z,97324.63
2023-09-28T01:48:05.299Z,97314.06
2023-09-28T01:50:32.497Z,97310.47
2023-09-28T01:52:59.555Z,97313.97
2023-09-28T01:55:26.086Z,97321.50
2023-09-28T01:57:52.749Z,97316.81
2023-09-28T02:00:23.668Z,97311.53
2023-09-28T02:02:51.860Z,97308.72
2023-09-28T02:05:19.147Z,97307.34
2023-09-28T02:07:46.401Z,97306.44
2023-09-28T02:10:13.345Z,97320.03
2023-09-28T02:12:40.759Z,97314.88
2023-09-28T02:17:53.795Z,97315.66
2023-09-28T02:20:23.912Z,97318.56
2023-09-28T02:22:53.775Z,97323.25
2023-09-28T02:25:22.105Z,97327.03
2023-09-28T02:27:49.496Z,97324.50
2023-09-28T02:30:18.944Z,97327.66
2023-09-28T02:32:46.226Z,97331.84
2023-09-28T02:35:15.403Z,97334.69
2023-09-28T02:37:42.934Z,97331.59
2023-09-28T02:40:10.819Z,97328.66
2023-09-28T02:42:37.354Z,97325.03
2023-09-28T02:45:12.857Z,97325.03
2023-09-28T02:47:43.655Z,97329.31
2023-09-28T02:50:14.638Z,97338.09
2023-09-28T02:52:42.404Z,97340.09
2023-09-28T02:57:53.445Z,97340.38
2023-09-28T03:00:19.920Z,97340.66
2023-09-28T03:02:46.658Z,97347.13
2023-09-28T03:05:13.317Z,97340.38
2023-09-28T03:07:42.560Z,97338.09
2023-09-28T03:12:55.435Z,97331.31
2023-09-28T03:15:22.022Z,97338.56
2023-09-28T03:17:48.736Z,97345.31
2023-09-28T03:23:03.495Z,97349.19
2023-09-28T03:25:30.146Z,97349.22
2023-09-28T03:27:56.634Z,97352.91
2023-09-28T03:30:24.168Z,97351.94
2023-09-28T03:32:51.748Z,97352.78
2023-09-28T03:38:03.767Z,97347.91
2023-09-28T03:40:34.781Z,97359.16
2023-09-28T03:45:48.452Z,97357.69
2023-09-28T03:48:15.015Z,97355.34
2023-09-28T03:50:41.482Z,97353.56
2023-09-28T03:53:07.948Z,97357.91
2023-09-28T03:55:34.565Z,97349.16
2023-09-28T03:58:01.938Z,97358.50
2023-09-28T04:00:28.797Z,97358.97
2023-09-28T04:02:56.294Z,97359.94
2023-09-28T04:08:08.690Z,97360.00
2023-09-28T04:10:35.175Z,97357.69
2023-09-28T04:15:49.791Z,97364.19
2023-09-28T04:18:16.428Z,97362.63
2023-09-28T04:20:42.901Z,97362.91
2023-09-28T04:23:09.909Z,97370.78
2023-09-28T04:25:37.000Z,97363.19
2023-09-28T04:28:04.515Z,97369.88
2023-09-28T04:30:31.051Z,97368.59
2023-09-28T04:32:58.318Z,97370.28
2023-09-28T04:35:24.909Z,97369.31
2023-09-28T04:37:51.465Z,97368.19
2023-09-28T04:40:18.030Z,97374.84
2023-09-28T04:42:44.578Z,97380.66
2023-09-28T04:45:11.484Z,97384.34
2023-09-28T04:47:38.211Z,97379.22
2023-09-28T04:50:05.724Z,97379.22
2023-09-28T04:52:32.335Z,97373.41
2023-09-28T04:54:59.056Z,97375.25
2023-09-28T04:57:26.724Z,97378.28
2023-09-28T04:59:53.697Z,97370.03
2023-09-28T05:02:20.393Z,97376.31
2023-09-28T05:04:46.959Z,97374.28
2023-09-28T05:07:13.917Z,97374.03
2023-09-28T05:09:40.493Z,97389.84
2023-09-28T05:12:07.740Z,97389.69
2023-09-28T05:14:34.410Z,97385.25
2023-09-28T05:17:01.465Z,97386.50
2023-09-28T05:19:28.241Z,97383.19
2023-09-28T05:21:54.871Z,97387.16
2023-09-28T05:24:21.474Z,97389.25
2023-09-28T05:26:47.943Z,97394.09
2023-09-28T05:29:14.545Z,97394.72
2023-09-28T05:31:41.821Z,97401.69
2023-09-28T05:34:08.986Z,97401.69
2023-09-28T05:36:36.289Z,97409.81
2023-09-28T05:39:04.301Z,97401.50
2023-09-28T05:41:31.492Z,97396.13
2023-09-28T05:43:58.056Z,97397.78
2023-09-28T05:46:24.613Z,97409.28
2023-09-28T05:48:51.719Z,97406.69
2023-09-28T05:51:18.766Z,97402.38
2023-09-28T05:53:46.266Z,97402.53
2023-09-28T05:56:15.316Z,97411.84
2023-09-28T05:58:41.825Z,97402.44
2023-09-28T06:01:08.820Z,97401.31
2023-09-28T06:03:36.826Z,97398.84
2023-09-28T06:06:32.779Z,97393.88
2023-09-28T06:08:59.334Z,97390.94
2023-09-28T06:11:26.353Z,97394.84
2023-09-28T06:14:06.891Z,97391.53
2023-09-28T06:16:38.231Z,97392.66
2023-09-28T06:19:05.060Z,97384.16
2023-09-28T06:21:31.601Z,97371.63
2023-09-28T06:23:58.751Z,97375.88
2023-09-28T06:26:35.326Z,97364.94
2023-09-28T06:29:08.587Z,97367.91
2023-09-28T06:31:35.323Z,97376.72
2023-09-28T06:34:02.445Z,97368.69
2023-09-28T06:38:58.759Z,97350.31
2023-09-28T06:44:11.036Z,97346.69
2023-09-28T06:46:38.161Z,97333.47
2023-09-28T06:49:07.266Z,97330.91
2023-09-28T06:51:33.889Z,97342.53
2023-09-28T06:54:00.549Z,97336.06
2023-09-28T06:56:28.133Z,97346.53
2023-09-28T06:58:55.168Z,97354.25
2023-09-28T07:01:22.332Z,97347.09
2023-09-28T07:03:54.018Z,97348.28
2023-09-28T07:06:22.622Z,97347.06
2023-09-28T07:08:50.242Z,97359.13
2023-09-28T07:11:16.774Z,97348.66
2023-09-28T07:13:43.336Z,97346.34
2023-09-28T07:16:09.914Z,97341.03
2023-09-28T07:21:21.513Z,97351.75
2023-09-28T07:23:48.155Z,97339.09
2023-09-28T07:29:01.409Z,97367.00
2023-09-28T07:31:28.710Z,97358.75
2023-09-28T07:33:55.438Z,97380.03
2023-09-28T07:36:22.034Z,97374.56
2023-09-28T07:38:48.647Z,97373.34
2023-09-28T07:41:15.270Z,97372.53
2023-09-28T07:43:41.712Z,97374.13
2023-09-28T07:46:08.788Z,97370.13
2023-09-28T07:48:36.066Z,97368.56
2023-09-28T07:51:02.615Z,97384.00
2023-09-28T07:53:29.494Z,97381.88
2023-09-28T07:55:56.181Z,97381.34
2023-09-28T07:58:26.723Z,97385.91
2023-09-28T08:00:54.831Z,97387.31
2023-09-28T08:03:21.643Z,97382.47
2023-09-28T08:05:48.278Z,97383.16
2023-09-28T08:08:17.851Z,97367.72
2023-09-28T08:10:44.987Z,97373.31
2023-09-28T08:13:14.500Z,97361.97
2023-09-28T08:15:42.196Z,97379.50
2023-09-28T08:18:09.613Z,97369.97
2023-09-28T08:20:36.690Z,97360.09
2023-09-28T08:23:05.856Z,97373.28
2023-09-28T08:25:32.783Z,97371.91
2023-09-28T08:28:00.242Z,97362.66
2023-09-28T08:30:26.744Z,97362.22
2023-09-28T08:32:54.954Z,97361.56
2023-09-28T08:38:06.047Z,97362.34
2023-09-28T08:40:33.221Z,97367.53
2023-09-28T08:43:00.769Z,97369.69
2023-09-28T08:45:28.202Z,97371.22
2023-09-28T08:47:55.940Z,97366.50
2023-09-28T08:50:29.416Z,97361.25
2023-09-28T08:52:56.938Z,97358.38
2023-09-28T08:55:24.919Z,97360.38
2023-09-28T08:57:51.995Z,97347.16
2023-09-28T09:00:24.257Z,97361.19
2023-09-28T09:02:52.991Z,97360.66
2023-09-28T09:05:20.130Z,97357.50
2023-09-28T09:07:46.846Z,97341.38
2023-09-28T09:10:14.349Z,97353.00
2023-09-28T09:12:40.875Z,97350.56
2023-09-28T09:15:07.714Z,97344.41
2023-09-28T09:17:34.726Z,97353.06
2023-09-28T09:20:02.840Z,97350.44
2023-09-28T09:22:35.014Z,97346.34
2023-09-28T09:25:08.647Z,97344.81
2023-09-28T09:27:35.193Z,97335.41
2023-09-28T09:30:09.447Z,97345.91
2023-09-28T09:32:36.586Z,97336.16
2023-09-28T09:35:05.693Z,97333.63
2023-09-28T09:40:17.463Z,97338.16
2023-09-28T09:42:44.095Z,97337.50
2023-09-28T09:45:12.924Z,97331.06
2023-09-28T09:47:48.961Z,97324.19
2023-09-28T09:50:16.005Z,97319.22
2023-09-28T09:52:44.004Z,97321.34
2023-09-28T09:55:10.722Z,97329.22
2023-09-28T09:57:38.762Z,97321.91
2023-09-28T10:00:08.337Z,97321.34
2023-09-28T10:02:37.577Z,97319.59
2023-09-28T10:05:05.627Z,97307.66
2023-09-28T10:07:47.407Z,97318.44
2023-09-28T10:10:15.353Z,97310.38
2023-09-28T10:15:27.270Z,97311.16
2023-09-28T10:17:54.833Z,97307.28
2023-09-28T10:20:21.669Z,97312.69
2023-09-28T10:22:48.982Z,97305.34
2023-09-28T10:25:19.324Z,97301.47
2023-09-28T10:27:48.640Z,97299.94
2023-09-28T10:30:22.441Z,97304.19
2023-09-28T10:32:53.193Z,97295.13
2023-09-28T10:35:28.078Z,97285.44
2023-09-28T10:38:17.127Z,97298.00
2023-09-28T10:43:46.341Z,97280.31
2023-09-28T10:48:58.822Z,97278.19
2023-09-28T10:51:25.726Z,97279.91
2023-09-28T10:53:52.291Z,97277.63
2023-09-28T10:59:06.276Z,97278.03
2023-09-28T11:01:33.059Z,97274.94
2023-09-28T11:04:00.640Z,97271.84
2023-09-28T11:06:28.595Z,97276.84
2023-09-28T11:08:58.422Z,97278.97
2023-09-28T11:11:26.182Z,97275.28
2023-09-28T11:13:52.793Z,97276.25
2023-09-28T11:16:19.490Z,97270.91
2023-09-28T11:18:46.113Z,97261.47
2023-09-28T11:21:13.337Z,97258.56
2023-09-28T11:23:41.268Z,97265.28
2023-09-28T11:26:14.450Z,97258.72
2023-09-28T11:28:41.031Z,97262.38
2023-09-28T11:31:11.357Z,97258.16
2023-09-28T11:33:38.630Z,97263.19
2023-09-28T11:36:05.946Z,97255.72
2023-09-28T11:38:32.802Z,97252.41
2023-09-28T11:40:59.629Z,97259.34
2023-09-28T11:43:27.101Z,97262.25
2023-09-28T11:45:53.629Z,97257.00
2023-09-28T11:51:10.083Z,97246.81
2023-09-28T11:53:39.564Z,97253.31
2023-09-28T11:56:06.243Z,97243.03
2023-09-28T11:58:35.479Z,97250.53
2023-09-28T12:01:02.209Z,97249.50
2023-09-28T12:03:29.107Z,97253.16
2023-09-28T12:05:55.966Z,97256.63
2023-09-28T12:08:22.939Z,97254.50
2023-09-28T12:10:49.540Z,97247.34
2023-09-28T12:13:16.072Z,97252.19
2023-09-28T12:15:42.566Z,97251.84
2023-09-28T12:18:09.850Z,97251.09
2023-09-28T12:20:36.574Z,97250.84
2023-09-28T12:23:04.472Z,97249.50
2023-09-28T12:25:34.546Z,97242.78
2023-09-28T12:28:01.295Z,97254.09
2023-09-28T12:30:27.862Z,97250.59
2023-09-28T12:32:55.081Z,97244.41
2023-09-28T12:38:06.721Z,97245.16
2023-09-28T12:40:34.051Z,97243.03
2023-09-28T12:43:02.394Z,97237.03
2023-09-28T12:45:31.963Z,97239.78
2023-09-28T12:53:27.459Z,97227.88
2023-09-28T12:55:55.099Z,97234.47
2023-09-28T12:58:22.054Z,97231.78
2023-09-28T13:00:55.796Z,97231.03
2023-09-28T13:03:22.888Z,97212.19
2023-09-28T13:05:49.646Z,97221.00
2023-09-28T13:08:16.948Z,97222.19
2023-09-28T13:10:44.167Z,97224.09
2023-09-28T13:13:10.843Z,97222.56
2023-09-28T13:15:37.457Z,97219.88
2023-09-28T13:18:09.842Z,97209.50
2023-09-28T13:20:43.568Z,97214.13
2023-09-28T13:23:11.260Z,97218.91
2023-09-28T13:25:39.443Z,97210.84
2023-09-28T13:28:09.968Z,97209.09
2023-09-28T13:30:40.180Z,97203.72
2023-09-28T13:33:08.126Z,97209.72
2023-09-28T13:35:34.922Z,97204.66
2023-09-28T13:38:03.387Z,97199.84
2023-09-28T13:40:34.186Z,97202.94
2023-09-28T13:43:01.316Z,97205.25
2023-09-28T13:45:28.226Z,97210.44
2023-09-28T13:47:55.223Z,97209.69
2023-09-28T13:50:22.601Z,97207.16
2023-09-28T13:52:51.069Z,97198.69
2023-09-28T13:55:18.005Z,97201.19
2023-09-28T13:57:48.900Z,97207.91
2023-09-28T14:00:23.704Z,97195.22
2023-09-28T14:02:50.472Z,97209.44
2023-09-28T14:05:17.960Z,97211.00
2023-09-28T14:07:45.532Z,97199.25
2023-09-28T14:10:12.248Z,97209.03
2023-09-28T14:12:39.363Z,97202.47
2023-09-28T14:15:07.862Z,97193.63
2023-09-28T14:17:39.296Z,97197.47
2023-09-28T14:20:07.961Z,97203.41
2023-09-28T14:22:34.867Z,97197.97
2023-09-28T14:25:02.000Z,97199.88
2023-09-28T14:27:29.324Z,97199.31
2023-09-28T14:29:55.848Z,97206.44
2023-09-28T14:32:22.408Z,97220.84
2023-09-28T14:34:48.974Z,97221.97
2023-09-28T14:37:15.497Z,97231.56
2023-09-28T14:39:41.968Z,97219.84
2023-09-28T14:42:08.647Z,97219.22
2023-09-28T14:44:35.950Z,97218.78
2023-09-28T14:47:02.475Z,97224.34
2023-09-28T14:49:28.901Z,97226.81
2023-09-28T14:51:55.417Z,97225.63
2023-09-28T14:54:22.352Z,97231.00
2023-09-28T14:56:50.248Z,97227.50
2023-09-28T14:59:16.937Z,97223.59
2023-09-28T15:01:43.469Z,97228.94
2023-09-28T15:04:10.179Z,97225.84
2023-09-28T15:06:36.959Z,97230.09
2023-09-28T15:09:04.023Z,97234.28
2023-09-28T15:11:30.631Z,97233.47
2023-09-28T15:13:57.485Z,97241.06
2023-09-28T15:16:24.578Z,97250.59
2023-09-28T15:18:51.130Z,97242.50
2023-09-28T15:21:17.687Z,97254.75
2023-09-28T15:23:44.222Z,97247.75
2023-09-28T15:26:10.890Z,97253.00
2023-09-28T15:28:38.382Z,97259.13
2023-09-28T15:31:04.950Z,97251.75
2023-09-28T15:33:31.554Z,97259.97
2023-09-28T15:35:59.557Z,97261.53
2023-09-28T15:38:26.428Z,97258.38
2023-09-28T15:40:53.195Z,97264.03
2023-09-28T15:43:19.749Z,97269.44
2023-09-28T15:45:47.430Z,97267.13
2023-09-28T15:48:14.013Z,97270.47
2023-09-28T15:50:41.681Z,97269.63
2023-09-28T15:53:08.916Z,97261.88
2023-09-28T15:55:35.475Z,97282.06
2023-09-28T15:58:02.451Z,97287.38
2023-09-28T16:00:36.570Z,97286.44
2023-09-28T16:03:04.949Z,97284.59
2023-09-28T16:05:31.677Z,97282.13
2023-09-28T16:08:00.211Z,97287.78
2023-09-28T16:10:27.046Z,97293.66
2023-09-28T16:12:54.237Z,97289.56
2023-09-28T16:15:20.982Z,97290.00
2023-09-28T16:17:47.701Z,97288.91
2023-09-28T16:20:14.515Z,97295.44
2023-09-28T16:22:41.187Z,97298.84
2023-09-28T16:25:07.989Z,97299.50
2023-09-28T16:27:34.587Z,97305.44
2023-09-28T16:30:01.125Z,97319.19
2023-09-28T16:32:27.708Z,97311.13
2023-09-28T16:34:54.393Z,97308.25
2023-09-28T16:37:20.941Z,97319.28
2023-09-28T16:39:47.544Z,97317.72
2023-09-28T16:42:14.065Z,97311.31
2023-09-28T16:44:40.668Z,97323.13
2023-09-28T16:47:07.255Z,97324.75
2023-09-28T16:49:33.736Z,97323.09
2023-09-28T16:52:00.377Z,97338.88
2023-09-28T16:54:27.037Z,97334.72
2023-09-28T16:56:53.839Z,97339.09
2023-09-28T16:59:20.432Z,97341.84
2023-09-28T17:01:47.012Z,97344.34
2023-09-28T17:04:13.916Z,97344.34
2023-09-28T17:06:41.785Z,97348.53
2023-09-28T17:09:08.312Z,97358.78
2023-09-28T17:11:34.874Z,97353.38
2023-09-28T17:14:01.512Z,97345.28
2023-09-28T17:16:30.621Z,97361.41
2023-09-28T17:18:58.900Z,97348.25
2023-09-28T17:21:25.694Z,97357.94
2023-09-28T17:23:52.449Z,97366.06
2023-09-28T17:26:19.031Z,97362.72
2023-09-28T17:28:45.791Z,97370.00
2023-09-28T17:31:13.330Z,97370.84
2023-09-28T17:33:39.864Z,97374.56
2023-09-28T17:36:06.476Z,97377.19
2023-09-28T17:38:33.046Z,97380.28
2023-09-28T17:41:00.319Z,97378.59
2023-09-28T17:43:26.909Z,97389.28
2023-09-28T17:45:53.754Z,97377.38
2023-09-28T17:48:20.308Z,97391.47
2023-09-28T17:50:47.034Z,97393.59
2023-09-28T17:53:13.579Z,97390.50
2023-09-28T17:55:40.456Z,97400.44
2023-09-28T17:58:06.990Z,97401.03
2023-09-28T18:00:33.527Z,97407.69
2023-09-28T18:03:02.368Z,97404.59
2023-09-28T18:05:31.465Z,97412.81
2023-09-28T18:07:58.444Z,97411.28
2023-09-28T18:10:25.034Z,97410.78
2023-09-28T18:12:51.675Z,97416.06
2023-09-28T18:15:20.809Z,97417.63
2023-09-28T18:17:47.585Z,97415.28
2023-09-28T18:20:14.149Z,97422.56
2023-09-28T18:22:40.855Z,97421.44
2023-09-28T18:25:10.330Z,97421.44
2023-09-28T18:27:37.141Z,97428.50
2023-09-28T18:30:09.570Z,97426.19
2023-09-28T18:32:39.665Z,97436.03
2023-09-28T18:35:07.889Z,97431.91
2023-09-28T18:37:34.681Z,97441.25
2023-09-28T18:40:01.470Z,97438.38
2023-09-28T18:42:31.012Z,97437.19
2023-09-28T18:44:57.489Z,97436.13
2023-09-28T18:47:24.630Z,97446.38
2023-09-28T18:49:51.900Z,97463.28
2023-09-28T18:52:18.523Z,97449.25
2023-09-28T18:54:45.124Z,97453.13
2023-09-28T18:57:11.638Z,97444.03
2023-09-28T18:59:38.187Z,97457.56
2023-09-28T19:02:04.949Z,97470.59
2023-09-28T19:04:34.512Z,97463.28
2023-09-28T19:07:02.340Z,97464.84
2023-09-28T19:09:29.103Z,97472.16
2023-09-28T19:11:55.624Z,97470.88
2023-09-28T19:14:22.398Z,97476.88
2023-09-28T19:16:51.349Z,97474.81
2023-09-28T19:19:19.609Z,97476.88
2023-09-28T19:21:46.293Z,97475.69
2023-09-28T19:24:13.065Z,97484.63
2023-09-28T19:26:39.847Z,97477.19
2023-09-28T19:29:09.701Z,97475.66
2023-09-28T19:31:37.031Z,97479.28
2023-09-28T19:34:08.042Z,97479.81
2023-09-28T19:36:36.431Z,97482.44
2023-09-28T19:39:04.471Z,97494.44
2023-09-28T19:41:34.257Z,97491.03
2023-09-28T19:44:01.061Z,97493.16
2023-09-28T19:46:27.703Z,97494.94
2023-09-28T19:48:54.383Z,97495.78
2023-09-28T19:51:24.212Z,97500.47
2023-09-28T19:53:51.156Z,97504.91
2023-09-28T19:56:24.871Z,97515.56
2023-09-28T19:58:51.807Z,97514.22
2023-09-28T20:01:18.477Z,97520.53
2023-09-28T20:03:45.132Z,97518.19
2023-09-28T20:06:11.690Z,97526.75
2023-09-28T20:08:38.199Z,97525.97
2023-09-28T20:11:04.896Z,97534.00
2023-09-28T20:13:31.425Z,97532.72
2023-09-28T20:15:58.189Z,97531.41
2023-09-28T20:18:24.912Z,97535.66
2023-09-28T20:20:51.544Z,97536.69
2023-09-28T20:23:18.402Z,97530.44
2023-09-28T20:25:44.944Z,97545.03
2023-09-28T20:28:11.419Z,97538.28
2023-09-28T20:30:38.167Z,97532.06
2023-09-28T20:33:04.910Z,97532.06
2023-09-28T20:35:31.414Z,97530.25
2023-09-28T20:37:58.179Z,97531.53
2023-09-28T20:40:24.664Z,97516.16
2023-09-28T20:42:51.429Z,97532.06
2023-09-28T20:45:18.694Z,97528.91
2023-09-28T20:47:45.420Z,97524.25
2023-09-28T20:50:13.381Z,97525.31
2023-09-28T20:52:40.106Z,97529.47
2023-09-28T20:55:06.996Z,97530.25
2023-09-28T20:57:33.919Z,97527.94
2023-09-28T21:00:06.461Z,97529.19
2023-09-28T21:02:33.452Z,97528.41
2023-09-28T21:05:00.048Z,97534.94
2023-09-28T21:07:26.501Z,97524.31
2023-09-28T21:09:53.136Z,97533.66
2023-09-28T21:12:19.638Z,97536.50
2023-09-28T21:14:46.742Z,97528.97
2023-09-28T21:17:13.276Z,97535.75
2023-09-28T21:19:40.185Z,97535.53
2023-09-28T21:22:07.155Z,97529.78
2023-09-28T21:24:33.760Z,97523.81
2023-09-28T21:27:01.165Z,97532.72
2023-09-28T21:29:27.757Z,97534.25
2023-09-28T21:31:54.450Z,97541.00
2023-09-28T21:34:21.258Z,97545.69
2023-09-28T21:36:48.310Z,97544.16
2023-09-28T21:39:14.853Z,97547.00
2023-09-28T21:41:41.363Z,97548.63
2023-09-28T21:44:07.939Z,97544.72
2023-09-28T21:46:34.479Z,97553.34
2023-09-28T21:49:00.909Z,97548.94
2023-09-28T21:51:27.981Z,97550.28
2023-09-28T21:53:54.529Z,97550.00
2023-09-28T21:56:21.066Z,97552.34
2023-09-28T21:58:47.619Z,97555.25
2023-09-28T22:11:38.024Z,97556.31
2023-09-28T22:14:04.650Z,97563.31
2023-09-28T22:16:31.242Z,97554.28
2023-09-28T22:18:57.859Z,97558.16
2023-09-28T22:21:24.409Z,97566.19
2023-09-28T22:23:51.012Z,97563.09
2023-09-28T22:26:17.647Z,97567.72
2023-09-28T22:28:44.249Z,97567.22
2023-09-28T22:31:11.207Z,97579.16
2023-09-28T22:33:37.778Z,97572.38
2023-09-28T22:36:04.468Z,97571.34
2023-09-28T22:38:30.963Z,97587.16
2023-09-28T22:40:59.783Z,97580.13
2023-09-28T22:43:26.328Z,97581.66
2023-09-28T22:45:52.804Z,97585.31
2023-09-28T22:48:20.002Z,97586.84
2023-09-28T22:50:46.780Z,97589.38
2023-09-28T22:53:13.659Z,97590.69
2023-09-28T22:55:40.200Z,97576.66
2023-09-28T22:58:07.771Z,97588.63
2023-09-28T23:00:34.519Z,97595.59
2023-09-28T23:03:01.753Z,97581.88
2023-09-28T23:05:28.316Z,97588.91
2023-09-28T23:07:54.783Z,97597.19
2023-09-28T23:10:21.282Z,97592.53
2023-09-28T23:12:48.892Z,97598.75
2023-09-28T23:15:15.643Z,97598.50
2023-09-28T23:17:42.675Z,97600.31
2023-09-28T23:20:11.739Z,97594.59
2023-09-28T23:22:42.601Z,97594.06
2023-09-28T23:25:13.602Z,97594.06
2023-09-28T23:27:43.291Z,97607.31
2023-09-28T23:30:13.430Z,97592.00
2023-09-28T23:32:40.562Z,97600.56
2023-09-28T23:35:10.645Z,97593.03
2023-09-28T23:37:37.963Z,97595.34
2023-09-28T23:40:08.736Z,97592.19
2023-09-28T23:42:35.284Z,97590.38
2023-09-28T23:45:01.798Z,97595.56
2023-09-28T23:47:28.652Z,97598.06
2023-09-28T23:49:55.140Z,97596.03
2023-09-28T23:52:22.130Z,97591.09
2023-09-28T23:54:49.214Z,97586.91
2023-09-28T23:57:15.718Z,97587.44
2023-09-28T23:59:42.521Z,97595.47
